createdAt,value
2023-03-29T00:02:00.184Z,99998.47
2023-03-29T00:04:27.640Z,99997.63
2023-03-29T00:06:55.211Z,99988.19
2023-03-29T00:09:22.377Z,99971.75
2023-03-29T00:11:48.755Z,99981.41
2023-03-29T00:14:15.344Z,99973.75
2023-03-29T00:16:42.076Z,99967.72
2023-03-29T00:19:09.053Z,99962.59
2023-03-29T00:21:35.354Z,99956.56
2023-03-29T00:24:01.664Z,99949.69
2023-03-29T00:26:30.061Z,99953.25
2023-03-29T00:28:56.410Z,99963.78
2023-03-29T00:31:22.799Z,99958.59
2023-03-29T00:33:49.197Z,99949.94
2023-03-29T00:36:16.039Z,99952.63
2023-03-29T00:38:42.495Z,99948.38
2023-03-29T00:41:09.202Z,99939.72
2023-03-29T00:43:52.840Z,99938.19
2023-03-29T00:46:19.297Z,99928.47
2023-03-29T00:48:46.560Z,99931.13
2023-03-29T00:51:15.072Z,99929.34
2023-03-29T00:53:48.761Z,99925.91
2023-03-29T00:56:24.112Z,99928.53
2023-03-29T00:58:57.102Z,99918.88
2023-03-29T01:01:28.263Z,99921.44
2023-03-29T01:04:04.630Z,99927.50
2023-03-29T01:06:34.455Z,99913.41
2023-03-29T01:09:12.504Z,99920.47
2023-03-29T01:11:53.716Z,99912.63
2023-03-29T01:14:26.388Z,99912.44
2023-03-29T01:16:53.244Z,99908.91
2023-03-29T01:19:25.027Z,99908.91
2023-03-29T01:21:57.705Z,99908.03
2023-03-29T01:24:41.725Z,99903.78
2023-03-29T01:27:22.608Z,99900.31
2023-03-29T01:30:02.037Z,99893.44
2023-03-29T01:32:37.534Z,99895.22
2023-03-29T01:35:19.170Z,99888.34
2023-03-29T01:37:53.180Z,99883.03
2023-03-29T01:40:19.555Z,99874.25
2023-03-29T01:42:54.083Z,99870.00
2023-03-29T01:45:27.139Z,99856.91
2023-03-29T01:48:02.402Z,99847.31
2023-03-29T01:50:43.076Z,99847.22
2023-03-29T01:53:18.022Z,99845.47
2023-03-29T01:55:52.559Z,99839.53
2023-03-29T01:58:24.316Z,99842.13
2023-03-29T02:00:55.123Z,99837.72
2023-03-29T02:03:26.332Z,99836.91
2023-03-29T02:05:54.734Z,99836.91
2023-03-29T02:08:23.045Z,99833.38
2023-03-29T02:10:51.624Z,99835.91
2023-03-29T02:13:19.339Z,99838.47
2023-03-29T02:15:47.393Z,99825.31
2023-03-29T02:18:17.596Z,99828.78
2023-03-29T02:20:49.867Z,99824.34
2023-03-29T02:23:37.222Z,99827.78
2023-03-29T02:26:06.593Z,99816.22
2023-03-29T02:28:33.324Z,99814.41
2023-03-29T02:31:07.639Z,99812.69
2023-03-29T02:33:48.599Z,99805.75
2023-03-29T02:36:24.082Z,99801.44
2023-03-29T02:38:52.635Z,99788.34
2023-03-29T02:41:20.432Z,99793.56
2023-03-29T02:43:48.530Z,99788.34
2023-03-29T02:46:18.349Z,99782.25
2023-03-29T02:48:48.305Z,99784.88
2023-03-29T02:51:20.253Z,99777.94
2023-03-29T02:53:57.066Z,99785.78
2023-03-29T02:56:23.498Z,99777.88
2023-03-29T02:58:49.842Z,99765.69
2023-03-29T03:01:18.164Z,99772.69
2023-03-29T03:03:45.076Z,99765.69
2023-03-29T03:06:12.180Z,99762.28
2023-03-29T03:08:38.488Z,99756.28
2023-03-29T03:11:05.022Z,99758.97
2023-03-29T03:13:31.369Z,99754.66
2023-03-29T03:15:57.745Z,99752.97
2023-03-29T03:18:24.106Z,99752.09
2023-03-29T03:20:59.062Z,99753.97
2023-03-29T03:23:25.587Z,99749.53
2023-03-29T03:25:52.646Z,99746.06
2023-03-29T03:28:19.909Z,99749.59
2023-03-29T03:30:46.398Z,99740.81
2023-03-29T03:33:12.990Z,99739.06
2023-03-29T03:35:39.567Z,99741.69
2023-03-29T03:38:05.974Z,99740.69
2023-03-29T03:40:33.385Z,99743.31
2023-03-29T03:42:59.958Z,99730.28
2023-03-29T03:45:27.064Z,99739.00
2023-03-29T03:47:53.925Z,99737.22
2023-03-29T03:50:20.520Z,99736.38
2023-03-29T03:52:47.055Z,99742.44
2023-03-29T03:55:14.226Z,99740.75
2023-03-29T03:57:40.756Z,99732.91
2023-03-29T04:00:19.976Z,99736.50
2023-03-29T04:02:48.252Z,99734.81
2023-03-29T04:05:15.606Z,99731.41
2023-03-29T04:07:42.690Z,99714.00
2023-03-29T04:10:09.815Z,99710.50
2023-03-29T04:12:36.680Z,99717.47
2023-03-29T04:15:03.693Z,99720.91
2023-03-29T04:17:30.203Z,99725.31
2023-03-29T04:19:57.642Z,99722.72
2023-03-29T04:22:25.823Z,99720.91
2023-03-29T04:24:52.406Z,99721.78
2023-03-29T04:27:19.091Z,99716.50
2023-03-29T04:29:46.427Z,99719.88
2023-03-29T04:32:12.956Z,99721.50
2023-03-29T04:34:39.464Z,99708.28
2023-03-29T04:37:10.412Z,99710.84
2023-03-29T04:39:37.682Z,99700.31
2023-03-29T04:42:05.167Z,99697.63
2023-03-29T04:44:33.681Z,99695.84
2023-03-29T04:47:01.106Z,99689.69
2023-03-29T04:49:27.651Z,99687.94
2023-03-29T04:51:54.362Z,99687.94
2023-03-29T04:54:21.274Z,99690.47
2023-03-29T04:56:47.855Z,99680.06
2023-03-29T04:59:14.398Z,99685.31
2023-03-29T05:01:40.978Z,99682.75
2023-03-29T05:04:07.495Z,99680.19
2023-03-29T05:06:34.132Z,99681.13
2023-03-29T05:09:01.197Z,99679.44
2023-03-29T05:11:27.748Z,99679.44
2023-03-29T05:13:57.149Z,99676.81
2023-03-29T05:16:24.472Z,99676.81
2023-03-29T05:18:51.749Z,99674.13
2023-03-29T05:21:18.518Z,99673.22
2023-03-29T05:23:45.056Z,99673.22
2023-03-29T05:26:14.559Z,99673.13
2023-03-29T05:28:42.088Z,99668.72
2023-03-29T05:31:08.931Z,99665.22
2023-03-29T05:33:36.563Z,99668.59
2023-03-29T05:36:08.375Z,99659.13
2023-03-29T05:38:35.779Z,99657.22
2023-03-29T05:41:03.161Z,99659.81
2023-03-29T05:43:29.890Z,99660.56
2023-03-29T05:45:56.680Z,99668.41
2023-03-29T05:48:26.871Z,99671.03
2023-03-29T05:50:55.275Z,99675.28
2023-03-29T05:53:24.277Z,99670.88
2023-03-29T05:55:51.303Z,99673.44
2023-03-29T05:58:20.166Z,99669.06
2023-03-29T06:00:49.448Z,99675.97
2023-03-29T06:03:21.329Z,99679.53
2023-03-29T06:05:55.064Z,99682.06
2023-03-29T06:08:22.289Z,99686.44
2023-03-29T06:10:49.058Z,99687.94
2023-03-29T06:13:15.828Z,99689.72
2023-03-29T06:15:42.392Z,99685.34
2023-03-29T06:18:09.910Z,99687.03
2023-03-29T06:20:36.526Z,99685.34
2023-03-29T06:23:03.081Z,99702.69
2023-03-29T06:25:29.974Z,99693.06
2023-03-29T06:27:56.515Z,99696.50
2023-03-29T06:30:23.390Z,99686.09
2023-03-29T06:32:50.573Z,99682.66
2023-03-29T06:35:17.144Z,99683.56
2023-03-29T06:37:49.492Z,99683.66
2023-03-29T06:40:21.241Z,99689.72
2023-03-29T06:42:48.631Z,99685.41
2023-03-29T06:45:16.065Z,99688.00
2023-03-29T06:47:42.610Z,99683.66
2023-03-29T06:50:10.148Z,99675.78
2023-03-29T06:52:36.710Z,99682.66
2023-03-29T06:55:07.539Z,99690.50
2023-03-29T06:57:34.266Z,99686.03
2023-03-29T07:00:01.525Z,99680.66
2023-03-29T07:02:29.108Z,99690.16
2023-03-29T07:04:56.234Z,99691.78
2023-03-29T07:07:24.181Z,99693.34
2023-03-29T07:09:53.851Z,99694.91
2023-03-29T07:12:22.290Z,99690.34
2023-03-29T07:14:49.008Z,99686.78
2023-03-29T07:17:16.648Z,99696.16
2023-03-29T07:19:43.444Z,99699.50
2023-03-29T07:22:09.996Z,99690.66
2023-03-29T07:24:36.573Z,99690.50
2023-03-29T07:27:04.670Z,99693.84
2023-03-29T07:29:32.303Z,99711.13
2023-03-29T07:31:59.035Z,99706.56
2023-03-29T07:34:25.658Z,99708.13
2023-03-29T07:36:52.295Z,99700.88
2023-03-29T07:39:18.976Z,99710.31
2023-03-29T07:41:45.576Z,99708.41
2023-03-29T07:44:12.084Z,99700.31
2023-03-29T07:46:38.672Z,99705.41
2023-03-29T07:49:05.935Z,99707.09
2023-03-29T07:51:32.514Z,99712.22
2023-03-29T07:53:59.856Z,99710.28
2023-03-29T07:56:26.573Z,99706.66
2023-03-29T07:58:53.224Z,99708.28
2023-03-29T08:01:20.593Z,99710.69
2023-03-29T08:03:47.362Z,99708.84
2023-03-29T08:06:16.141Z,99713.84
2023-03-29T08:08:42.701Z,99721.50
2023-03-29T08:11:10.066Z,99715.22
2023-03-29T08:13:37.416Z,99721.09
2023-03-29T08:16:05.739Z,99708.59
2023-03-29T08:18:34.266Z,99700.56
2023-03-29T08:21:01.698Z,99701.25
2023-03-29T08:23:28.437Z,99702.78
2023-03-29T08:25:54.970Z,99700.03
2023-03-29T08:28:21.523Z,99697.16
2023-03-29T08:30:48.160Z,99700.50
2023-03-29T08:33:14.859Z,99700.25
2023-03-29T08:35:41.683Z,99704.34
2023-03-29T08:38:10.686Z,99706.72
2023-03-29T08:40:37.212Z,99707.41
2023-03-29T08:43:21.763Z,99697.78
2023-03-29T08:46:00.495Z,99689.47
2023-03-29T08:48:38.384Z,99690.94
2023-03-29T08:51:13.460Z,99688.94
2023-03-29T08:53:45.134Z,99685.97
2023-03-29T08:56:18.649Z,99685.66
2023-03-29T08:58:46.709Z,99692.25
2023-03-29T09:01:13.717Z,99695.41
2023-03-29T09:03:50.516Z,99687.28
2023-03-29T09:06:22.006Z,99697.38
2023-03-29T09:08:51.140Z,99705.69
2023-03-29T09:11:23.712Z,99712.41
2023-03-29T09:14:15.765Z,99714.78
2023-03-29T09:16:49.118Z,99713.41
2023-03-29T09:19:42.683Z,99712.41
2023-03-29T09:22:09.330Z,99697.91
2023-03-29T09:24:54.036Z,99702.66
2023-03-29T09:30:11.170Z,99695.75
2023-03-29T09:32:52.528Z,99695.22
2023-03-29T09:35:23.681Z,99694.63
2023-03-29T09:37:52.976Z,99703.69
2023-03-29T09:40:38.219Z,99692.03
2023-03-29T09:43:09.067Z,99690.50
2023-03-29T09:45:38.561Z,99688.25
2023-03-29T09:48:13.812Z,99687.16
2023-03-29T09:50:48.700Z,99685.09
2023-03-29T09:53:16.071Z,99701.38
2023-03-29T09:55:44.191Z,99700.50
2023-03-29T09:58:16.631Z,99693.63
2023-03-29T10:00:43.064Z,99693.53
2023-03-29T10:03:10.686Z,99693.63
2023-03-29T10:05:37.873Z,99701.63
2023-03-29T10:08:19.477Z,99706.22
2023-03-29T10:10:46.779Z,99692.91
2023-03-29T10:13:22.868Z,99698.25
2023-03-29T10:16:03.795Z,99706.31
2023-03-29T10:18:32.644Z,99697.38
2023-03-29T10:21:02.598Z,99693.81
2023-03-29T10:23:34.635Z,99691.19
2023-03-29T10:26:07.710Z,99680.56
2023-03-29T10:28:36.210Z,99687.50
2023-03-29T10:31:04.124Z,99679.25
2023-03-29T10:33:33.833Z,99687.16
2023-03-29T10:36:03.727Z,99681.81
2023-03-29T10:38:30.340Z,99681.59
2023-03-29T10:41:05.476Z,99687.72
2023-03-29T10:43:37.217Z,99684.72
2023-03-29T10:46:10.619Z,99689.81
2023-03-29T10:48:37.158Z,99682.44
2023-03-29T10:51:05.915Z,99673.41
2023-03-29T10:53:34.665Z,99670.69
2023-03-29T10:56:28.673Z,99668.16
2023-03-29T10:59:14.452Z,99669.00
2023-03-29T11:02:14.696Z,99674.47
2023-03-29T11:04:49.168Z,99673.63
2023-03-29T11:07:26.148Z,99689.44
2023-03-29T11:10:11.160Z,99689.72
2023-03-29T11:12:44.477Z,99694.13
2023-03-29T11:15:34.501Z,99691.69
2023-03-29T11:18:22.175Z,99693.56
2023-03-29T11:21:10.605Z,99687.72
2023-03-29T11:23:54.307Z,99683.41
2023-03-29T11:26:27.530Z,99680.78
2023-03-29T11:29:19.610Z,99679.09
2023-03-29T11:32:13.184Z,99668.44
2023-03-29T11:34:50.047Z,99670.72
2023-03-29T11:37:38.042Z,99670.53
2023-03-29T11:40:39.143Z,99673.16
2023-03-29T11:43:13.505Z,99674.75
2023-03-29T11:45:46.137Z,99670.41
2023-03-29T11:48:38.971Z,99668.06
2023-03-29T11:51:23.846Z,99670.72
2023-03-29T11:53:57.328Z,99662.72
2023-03-29T11:56:40.240Z,99665.44
2023-03-29T11:59:15.055Z,99672.47
2023-03-29T12:01:48.621Z,99669.84
2023-03-29T12:04:22.860Z,99654.91
2023-03-29T12:07:11.905Z,99665.34
2023-03-29T12:09:56.109Z,99662.41
2023-03-29T12:12:46.663Z,99655.84
2023-03-29T12:15:20.297Z,99652.72
2023-03-29T12:18:08.231Z,99646.22
2023-03-29T12:20:38.634Z,99648.38
2023-03-29T12:23:07.193Z,99659.50
2023-03-29T12:25:53.026Z,99655.91
2023-03-29T12:28:54.999Z,99641.50
2023-03-29T12:31:46.270Z,99639.31
2023-03-29T12:34:29.577Z,99629.31
2023-03-29T12:36:56.213Z,99626.38
2023-03-29T12:39:24.434Z,99622.41
2023-03-29T12:41:53.098Z,99617.03
2023-03-29T12:44:23.448Z,99622.22
2023-03-29T12:46:59.253Z,99622.13
2023-03-29T12:49:35.803Z,99614.22
2023-03-29T12:52:12.587Z,99616.63
2023-03-29T12:54:38.956Z,99620.75
2023-03-29T12:57:42.665Z,99622.88
2023-03-29T13:00:22.897Z,99623.41
2023-03-29T13:03:19.934Z,99615.59
2023-03-29T13:05:46.848Z,99617.31
2023-03-29T13:08:26.289Z,99623.91
2023-03-29T13:10:56.764Z,99626.53
2023-03-29T13:13:29.622Z,99617.03
2023-03-29T13:16:08.480Z,99618.72
2023-03-29T13:19:02.467Z,99616.41
2023-03-29T13:21:38.041Z,99614.50
2023-03-29T13:24:32.205Z,99614.69
2023-03-29T13:27:10.132Z,99606.69
2023-03-29T13:29:43.207Z,99604.91
2023-03-29T13:32:21.478Z,99599.44
2023-03-29T13:34:56.323Z,99601.56
2023-03-29T13:37:38.574Z,99603.16
2023-03-29T13:40:44.593Z,99605.78
2023-03-29T13:43:19.927Z,99592.19
2023-03-29T13:46:04.247Z,99598.06
2023-03-29T13:48:36.696Z,99596.50
2023-03-29T13:51:20.988Z,99596.06
2023-03-29T13:54:18.664Z,99595.78
2023-03-29T13:57:19.622Z,99589.03
2023-03-29T14:00:17.817Z,99595.59
2023-03-29T14:02:55.054Z,99589.78
2023-03-29T14:05:28.782Z,99586.94
2023-03-29T14:07:55.738Z,99573.53
2023-03-29T14:10:27.413Z,99578.81
2023-03-29T14:12:56.410Z,99575.03
2023-03-29T14:15:35.142Z,99562.78
2023-03-29T14:18:01.988Z,99560.66
2023-03-29T14:20:31.247Z,99560.41
2023-03-29T14:22:57.603Z,99558.53
2023-03-29T14:25:24.249Z,99547.78
2023-03-29T14:27:50.618Z,99549.34
2023-03-29T14:30:27.742Z,99548.50
2023-03-29T14:32:56.407Z,99549.00
2023-03-29T14:35:30.445Z,99538.53
2023-03-29T14:37:57.097Z,99536.56
2023-03-29T14:40:24.401Z,99531.16
2023-03-29T14:42:51.110Z,99523.09
2023-03-29T14:45:20.922Z,99522.19
2023-03-29T14:47:47.621Z,99520.25
2023-03-29T14:50:28.351Z,99515.19
2023-03-29T14:52:57.563Z,99518.38
2023-03-29T14:55:24.861Z,99515.63
2023-03-29T14:57:54.482Z,99504.00
2023-03-29T15:00:25.914Z,99505.47
2023-03-29T15:03:01.862Z,99510.63
2023-03-29T15:05:33.748Z,99507.66
2023-03-29T15:08:01.920Z,99508.25
2023-03-29T15:10:33.203Z,99505.53
2023-03-29T15:13:02.428Z,99518.53
2023-03-29T15:15:30.819Z,99510.38
2023-03-29T15:17:58.668Z,99505.72
2023-03-29T15:20:29.176Z,99503.69
2023-03-29T15:23:00.814Z,99504.22
2023-03-29T15:25:38.609Z,99495.22
2023-03-29T15:31:06.691Z,99489.84
2023-03-29T15:33:37.370Z,99488.69
2023-03-29T15:36:06.554Z,99484.88
2023-03-29T15:38:43.056Z,99483.81
2023-03-29T15:41:12.332Z,99484.28
2023-03-29T15:43:38.828Z,99474.34
2023-03-29T15:46:05.729Z,99454.75
2023-03-29T15:48:33.780Z,99455.38
2023-03-29T15:51:05.518Z,99462.00
2023-03-29T15:53:33.288Z,99461.53
2023-03-29T15:56:02.139Z,99462.16
2023-03-29T15:58:33.549Z,99452.19
2023-03-29T16:01:23.389Z,99453.03
2023-03-29T16:03:50.881Z,99442.81
2023-03-29T16:06:17.914Z,99436.44
2023-03-29T16:08:44.443Z,99443.41
2023-03-29T16:11:11.497Z,99443.41
2023-03-29T16:13:38.156Z,99433.53
2023-03-29T16:16:05.321Z,99434.41
2023-03-29T16:18:32.065Z,99421.91
2023-03-29T16:20:59.356Z,99424.41
2023-03-29T16:23:26.513Z,99419.75
2023-03-29T16:25:53.151Z,99428.28
2023-03-29T16:28:19.759Z,99428.03
2023-03-29T16:30:46.567Z,99418.16
2023-03-29T16:33:13.255Z,99424.19
2023-03-29T16:35:40.897Z,99407.47
2023-03-29T16:38:09.109Z,99403.84
2023-03-29T16:40:36.792Z,99395.91
2023-03-29T16:43:03.861Z,99393.25
2023-03-29T16:45:30.781Z,99389.78
2023-03-29T16:47:57.381Z,99382.78
2023-03-29T16:50:24.092Z,99381.09
2023-03-29T16:52:53.620Z,99379.44
2023-03-29T16:55:20.194Z,99378.56
2023-03-29T16:57:47.916Z,99381.38
2023-03-29T17:00:16.942Z,99378.84
2023-03-29T17:02:44.471Z,99357.78
2023-03-29T17:05:12.481Z,99364.75
2023-03-29T17:07:39.685Z,99372.81
2023-03-29T17:10:11.584Z,99374.84
2023-03-29T17:12:38.402Z,99368.59
2023-03-29T17:15:07.579Z,99369.56
2023-03-29T17:17:35.514Z,99376.66
2023-03-29T17:20:02.104Z,99378.47
2023-03-29T17:22:28.619Z,99375.09
2023-03-29T17:24:55.179Z,99371.72
2023-03-29T17:27:21.666Z,99371.00
2023-03-29T17:29:48.208Z,99369.31
2023-03-29T17:32:14.786Z,99371.22
2023-03-29T17:34:41.710Z,99366.91
2023-03-29T17:37:09.572Z,99367.97
2023-03-29T17:39:37.842Z,99367.28
2023-03-29T17:42:05.353Z,99363.06
2023-03-29T17:44:33.274Z,99363.28
2023-03-29T17:47:00.939Z,99361.72
2023-03-29T17:49:27.739Z,99353.16
2023-03-29T17:51:54.400Z,99346.19
2023-03-29T17:54:20.960Z,99346.44
2023-03-29T17:56:47.492Z,99358.09
2023-03-29T17:59:14.424Z,99362.69
2023-03-29T18:01:41.628Z,99358.47
2023-03-29T18:04:08.180Z,99363.00
2023-03-29T18:06:34.756Z,99361.34
2023-03-29T18:09:01.588Z,99350.88
2023-03-29T18:11:28.521Z,99345.69
2023-03-29T18:13:59.021Z,99343.31
2023-03-29T18:16:26.125Z,99345.09
2023-03-29T18:18:52.718Z,99348.72
2023-03-29T18:21:19.337Z,99338.25
2023-03-29T18:23:47.442Z,99341.97
2023-03-29T18:26:15.958Z,99345.69
2023-03-29T18:28:46.567Z,99334.38
2023-03-29T18:31:13.435Z,99312.41
2023-03-29T18:33:40.176Z,99310.69
2023-03-29T18:36:10.725Z,99314.41
2023-03-29T18:38:40.592Z,99310.91
2023-03-29T18:41:08.583Z,99296.97
2023-03-29T18:43:36.986Z,99296.13
2023-03-29T18:46:03.716Z,99278.56
2023-03-29T18:48:31.065Z,99275.22
2023-03-29T18:50:58.314Z,99275.44
2023-03-29T18:53:25.047Z,99278.19
2023-03-29T18:55:51.629Z,99287.09
2023-03-29T18:58:20.270Z,99282.88
2023-03-29T19:00:46.779Z,99281.91
2023-03-29T19:03:13.566Z,99267.72
2023-03-29T19:05:40.508Z,99266.06
2023-03-29T19:08:08.515Z,99269.56
2023-03-29T19:10:36.692Z,99267.72
2023-03-29T19:13:03.680Z,99272.09
2023-03-29T19:15:31.139Z,99272.91
2023-03-29T19:17:57.808Z,99268.47
2023-03-29T19:20:25.559Z,99262.22
2023-03-29T19:22:52.717Z,99257.78
2023-03-29T19:25:19.560Z,99249.84
2023-03-29T19:27:46.374Z,99259.47
2023-03-29T19:30:13.874Z,99264.63
2023-03-29T19:32:40.488Z,99258.50
2023-03-29T19:35:09.622Z,99268.13
2023-03-29T19:37:36.490Z,99254.75
2023-03-29T19:40:06.761Z,99257.28
2023-03-29T19:42:36.085Z,99250.22
2023-03-29T19:45:03.890Z,99236.03
2023-03-29T19:47:30.639Z,99243.88
2023-03-29T19:50:01.210Z,99238.78
2023-03-29T19:52:28.653Z,99238.69
2023-03-29T19:54:56.556Z,99232.44
2023-03-29T19:57:23.881Z,99228.00
2023-03-29T19:59:50.877Z,99222.72
2023-03-29T20:02:17.503Z,99220.09
2023-03-29T20:04:44.007Z,99210.34
2023-03-29T20:07:10.605Z,99212.03
2023-03-29T20:09:37.570Z,99205.91
2023-03-29T20:12:04.982Z,99204.94
2023-03-29T20:14:31.682Z,99197.00
2023-03-29T20:16:58.532Z,99202.16
2023-03-29T20:19:26.823Z,99192.56
2023-03-29T20:21:57.443Z,99189.91
2023-03-29T20:24:25.263Z,99186.31
2023-03-29T20:26:52.729Z,99189.81
2023-03-29T20:29:19.212Z,99176.69
2023-03-29T20:31:46.609Z,99186.31
2023-03-29T20:34:13.470Z,99184.63
2023-03-29T20:36:40.390Z,99167.09
2023-03-29T20:39:08.175Z,99163.47
2023-03-29T20:41:38.382Z,99161.81
2023-03-29T20:44:05.739Z,99160.84
2023-03-29T20:46:35.301Z,99153.97
2023-03-29T20:49:04.637Z,99157.34
2023-03-29T20:51:32.216Z,99153.97
2023-03-29T20:54:04.738Z,99154.91
2023-03-29T20:56:37.411Z,99139.19
2023-03-29T20:59:04.502Z,99141.94
2023-03-29T21:01:31.443Z,99131.59
2023-03-29T21:03:58.460Z,99135.31
2023-03-29T21:06:25.072Z,99141.59
2023-03-29T21:08:52.501Z,99138.19
2023-03-29T21:11:21.022Z,99130.53
2023-03-29T21:13:47.670Z,99126.22
2023-03-29T21:16:14.342Z,99127.28
2023-03-29T21:18:41.591Z,99123.94
2023-03-29T21:21:09.671Z,99112.63
2023-03-29T21:23:36.908Z,99108.31
2023-03-29T21:26:04.631Z,99085.59
2023-03-29T21:28:31.315Z,99081.28
2023-03-29T21:30:57.745Z,99089.31
2023-03-29T21:33:24.250Z,99081.53
2023-03-29T21:35:50.811Z,99083.44
2023-03-29T21:38:17.510Z,99077.44
2023-03-29T21:40:43.826Z,99072.16
2023-03-29T21:43:10.331Z,99075.75
2023-03-29T21:45:36.657Z,99072.25
2023-03-29T21:48:03.088Z,99059.06
2023-03-29T21:50:31.317Z,99064.34
2023-03-29T21:52:58.897Z,99057.25
2023-03-29T21:55:25.386Z,99047.66
2023-03-29T21:57:51.729Z,99044.16
2023-03-29T22:00:18.656Z,99047.78
2023-03-29T22:02:45.894Z,99053.78
2023-03-29T22:05:12.402Z,99047.66
2023-03-29T22:07:38.774Z,99030.84
2023-03-29T22:10:11.489Z,99037.81
2023-03-29T22:12:39.191Z,99038.41
2023-03-29T22:15:06.860Z,99034.81
2023-03-29T22:17:33.591Z,99025.66
2023-03-29T22:20:00.297Z,99029.88
2023-03-29T22:22:28.077Z,99031.53
2023-03-29T22:24:55.699Z,99027.81
2023-03-29T22:27:23.171Z,99017.13
2023-03-29T22:29:49.477Z,99017.97
2023-03-29T22:32:16.113Z,99017.00
2023-03-29T22:34:42.538Z,99010.88
2023-03-29T22:37:08.862Z,99016.88
2023-03-29T22:39:36.533Z,99012.28
2023-03-29T22:42:03.170Z,99019.25
2023-03-29T22:44:29.615Z,99015.66
2023-03-29T22:46:55.967Z,99018.19
2023-03-29T22:49:22.325Z,99023.34
2023-03-29T22:51:48.745Z,99023.09
2023-03-29T22:54:15.074Z,99014.19
2023-03-29T22:56:41.471Z,99017.34
2023-03-29T22:59:07.919Z,99018.78
2023-03-29T23:01:34.352Z,99007.94
2023-03-29T23:04:00.838Z,99007.81
2023-03-29T23:06:27.309Z,98997.97
2023-03-29T23:08:53.635Z,98991.59
2023-03-29T23:11:20.212Z,98995.16
2023-03-29T23:13:48.626Z,98993.50
2023-03-29T23:16:16.058Z,98985.69
2023-03-29T23:18:42.441Z,98975.38
2023-03-29T23:21:10.357Z,98970.34
2023-03-29T23:23:36.830Z,98966.97
2023-03-29T23:26:04.377Z,98965.50
2023-03-29T23:28:31.345Z,98963.97
2023-03-29T23:31:00.272Z,98959.88
2023-03-29T23:33:27.777Z,98957.41
2023-03-29T23:35:54.602Z,98950.53
2023-03-29T23:38:21.199Z,98947.88
2023-03-29T23:40:58.971Z,98940.34
2023-03-29T23:43:27.210Z,98933.97
2023-03-29T23:45:57.498Z,98935.91
2023-03-29T23:48:24.325Z,98937.59
2023-03-29T23:50:50.688Z,98928.94
2023-03-29T23:53:17.221Z,98931.69
2023-03-29T23:55:44.586Z,98931.84
2023-03-29T23:58:11.501Z,98924.72
